Time;durP1;ratioP1;P1;durP2;ratioP2;P2;SDS_P1;SDS_P2;PMS_P1;PMS_P2;Temp;Humidity;BMP_temperature;BMP_pressure;BME280_temperature;BME280_humidity;BME280_pressure;Samples;Min_cycle;Max_cycle;Signal;HPM_P1;HPM_P2
2022/07/07 00:00:10;;;;;;;;;;;;;;;;;;2140681;27;19922;-44
2022/07/07 00:01:11;;;;;;;;;;;;;;;;;;2140748;27;19926;-48
2022/07/07 00:02:12;;;;;;;;;;;;;;;;;;2140605;27;20379;-44
2022/07/07 00:03:13;;;;;;;;;;;;;;;;;;2140625;27;20442;-44
2022/07/07 00:04:14;;;;;;;;;;;;;;;;;;2140806;27;20015;-45
2022/07/07 00:05:15;;;;;;;;;;;;;;;;;;2140540;27;19954;-45
2022/07/07 00:06:16;;;;;;;;;;;;;;;;;;2140558;27;19970;-44
2022/07/07 00:07:17;;;;;;;;;;;;;;;;;;2140750;27;19964;-43
2022/07/07 00:08:18;;;;;;;;;;;;;;;;;;2140505;27;20299;-44
2022/07/07 00:09:19;;;;;;;;;;;;;;;;;;2140745;27;20017;-44
2022/07/07 00:10:20;;;;;;;;;;;;;;;;;;2140554;27;20363;-44
2022/07/07 00:11:21;;;;;;;;;;;;;;;;;;2136230;27;20025;-45
2022/07/07 00:12:22;;;;;;;;;;;;;;;;;;2132178;27;19982;-45
2022/07/07 00:13:22;;;;;;;;;;;;;;;;;;2132002;27;19927;-45
2022/07/07 00:14:24;;;;;;;;;;;;;;;;;;2132053;27;20463;-44
2022/07/07 00:15:25;;;;;;;;;;;;;;;;;;2131965;27;20446;-44
2022/07/07 00:16:25;;;;;;;;;;;;;;;;;;2131954;27;20009;-45
2022/07/07 00:17:27;;;;;;;;;;;;;;;;;;2131878;27;19923;-43
2022/07/07 00:18:27;;;;;;;;;;;;;;;;;;2132152;27;20077;-44
2022/07/07 00:19:28;;;;;;;;;;;;;;;;;;2136796;27;20051;-45
2022/07/07 00:20:29;;;;;;;;;;;;;;;;;;2132755;27;20006;-44
2022/07/07 00:21:31;;;;;;;;;;;;;;;;;;2131866;27;20299;-46
2022/07/07 00:22:31;;;;;;;;;;;;;;;;;;2131918;27;20005;-44
2022/07/07 00:23:32;;;;;;;;;;;;;;;;;;2131877;27;20021;-44
2022/07/07 00:24:33;;;;;;;;;;;;;;;;;;2131976;27;19931;-45
2022/07/07 00:25:34;;;;;;;;;;;;;;;;;;2131868;27;19984;-45
2022/07/07 00:26:35;;;;;;;;;;;;;;;;;;2132000;27;19930;-47
2022/07/07 00:27:37;;;;;;;;;;;;;;;;;;2131857;27;20437;-47
2022/07/07 00:28:37;;;;;;;;;;;;;;;;;;2131973;27;20014;-47
2022/07/07 00:29:38;;;;;;;;;;;;;;;;;;2131961;27;20324;-47
2022/07/07 00:30:39;;;;;;;;;;;;;;;;;;2131890;27;19966;-47
2022/07/07 00:31:40;;;;;;;;;;;;;;;;;;2131992;27;19965;-47
2022/07/07 00:32:41;;;;;;;;;;;;;;;;;;2131768;27;19923;-47
2022/07/07 00:33:42;;;;;;;;;;;;;;;;;;2131871;27;19954;-48
2022/07/07 00:34:42;;;;;;;;;;;;;;;;;;2131824;27;19946;-47
2022/07/07 00:35:43;;;;;;;;;;;;;;;;;;2131674;27;19927;-47
2022/07/07 00:36:44;;;;;;;;;;;;;;;;;;2131852;27;20010;-47
2022/07/07 00:37:45;;;;;;;;;;;;;;;;;;2131844;27;19930;-46
2022/07/07 00:38:46;;;;;;;;;;;;;;;;;;2132046;27;19927;-44
2022/07/07 00:39:47;;;;;;;;;;;;;;;;;;2131894;27;19923;-44
2022/07/07 00:40:48;;;;;;;;;;;;;;;;;;2131934;27;19948;-44
2022/07/07 00:41:54;;;;;;;;;;;;;;;;;;2131773;27;20440;-44
2022/07/07 00:42:55;;;;;;;;;;;;;;;;;;2131742;27;20019;-45
2022/07/07 00:43:56;;;;;;;;;;;;;;;;;;2131887;27;20313;-44
2022/07/07 00:44:56;;;;;;;;;;;;;;;;;;2131719;27;20194;-44
2022/07/07 00:45:57;;;;;;;;;;;;;;;;;;2131689;27;19927;-44
2022/07/07 00:46:58;;;;;;;;;;;;;;;;;;2131724;27;19923;-45
2022/07/07 00:47:59;;;;;;;;;;;;;;;;;;2131907;27;20017;-44
2022/07/07 00:49:00;;;;;;;;;;;;;;;;;;2131809;27;19927;-45
2022/07/07 00:50:01;;;;;;;;;;;;;;;;;;2131925;27;20004;-45
2022/07/07 00:51:02;;;;;;;;;;;;;;;;;;2131647;27;20010;-45
2022/07/07 00:52:03;;;;;;;;;;;;;;;;;;2131831;27;19934;-45
2022/07/07 00:53:04;;;;;;;;;;;;;;;;;;2131721;27;19927;-46
2022/07/07 00:54:05;;;;;;;;;;;;;;;;;;2131671;27;20023;-44
2022/07/07 00:55:08;;;;;;;;;;;;;;;;;;2131625;27;20371;-46
2022/07/07 00:56:08;;;;;;;;;;;;;;;;;;2131714;27;19923;-44
2022/07/07 00:57:09;;;;;;;;;;;;;;;;;;2131604;27;19999;-44
2022/07/07 00:58:28;;;;;;;;;;;;;;;;;;2131651;27;19927;-44
2022/07/07 00:59:29;;;;;;;;;;;;;;;;;;2131793;27;20318;-44
2022/07/07 01:00:33;;;;;;;;;;;;;;;;;;2131642;27;19927;-45
2022/07/07 01:01:34;;;;;;;;;;;;;;;;;;2131579;27;19923;-44
2022/07/07 01:02:35;;;;;;;;;;;;;;;;;;2131674;27;19931;-44
2022/07/07 01:03:36;;;;;;;;;;;;;;;;;;2131697;27;19923;-44
2022/07/07 01:04:37;;;;;;;;;;;;;;;;;;2131678;27;20279;-45
2022/07/07 01:05:38;;;;;;;;;;;;;;;;;;2131618;27;20004;-44
2022/07/07 01:06:39;;;;;;;;;;;;;;;;;;2131453;27;20018;-44
2022/07/07 01:07:40;;;;;;;;;;;;;;;;;;2131603;27;20011;-44
2022/07/07 01:08:41;;;;;;;;;;;;;;;;;;2131649;27;20025;-45
2022/07/07 01:09:42;;;;;;;;;;;;;;;;;;2131509;27;20399;-45
2022/07/07 01:10:42;;;;;;;;;;;;;;;;;;2131761;27;19927;-44
2022/07/07 01:11:43;;;;;;;;;;;;;;;;;;2131404;27;19923;-44
2022/07/07 01:12:44;;;;;;;;;;;;;;;;;;2131557;27;19930;-44
2022/07/07 01:13:45;;;;;;;;;;;;;;;;;;2131852;27;19923;-43
2022/07/07 01:14:46;;;;;;;;;;;;;;;;;;2131595;27;19927;-45
2022/07/07 01:15:47;;;;;;;;;;;;;;;;;;2136825;27;19978;-45
2022/07/07 01:16:47;;;;;;;;;;;;;;;;;;2139899;27;19941;-45
2022/07/07 01:17:49;;;;;;;;;;;;;;;;;;2140342;27;19923;-45
2022/07/07 01:18:49;;;;;;;;;;;;;;;;;;2140142;27;19937;-44
2022/07/07 01:19:50;;;;;;;;;;;;;;;;;;2140330;27;20373;-45
2022/07/07 01:20:51;;;;;;;;;;;;;;;;;;2140020;27;20273;-44
2022/07/07 01:21:53;;;;;;;;;;;;;;;;;;2140172;27;19978;-45
2022/07/07 01:22:53;;;;;;;;;;;;;;;;;;2140760;27;20011;-44
2022/07/07 01:23:54;;;;;;;;;;;;;;;;;;2141750;27;20341;-44
2022/07/07 01:24:55;;;;;;;;;;;;;;;;;;2141588;27;19984;-44
2022/07/07 01:25:56;;;;;;;;;;;;;;;;;;2141745;27;19966;-44
2022/07/07 01:26:57;;;;;;;;;;;;;;;;;;2141806;27;19940;-44
2022/07/07 01:27:58;;;;;;;;;;;;;;;;;;2141608;27;19926;-46
2022/07/07 01:28:59;;;;;;;;;;;;;;;;;;2142097;27;19923;-45
2022/07/07 01:30:00;;;;;;;;;;;;;;;;;;2141646;27;19945;-45
2022/07/07 01:31:01;;;;;;;;;;;;;;;;;;2141521;27;20052;-45
2022/07/07 01:32:02;;;;;;;;;;;;;;;;;;2141626;27;20498;-44
2022/07/07 01:33:03;;;;;;;;;;;;;;;;;;2141587;27;20009;-46
2022/07/07 01:34:03;;;;;;;;;;;;;;;;;;2141647;27;19945;-44
2022/07/07 01:35:04;;;;;;;;;;;;;;;;;;2141921;27;20379;-46
2022/07/07 01:36:05;;;;;;;;;;;;;;;;;;2141567;27;19962;-47
2022/07/07 01:37:06;;;;;;;;;;;;;;;;;;2141751;27;19923;-44
2022/07/07 01:38:07;;;;;;;;;;;;;;;;;;2141796;27;19983;-45
2022/07/07 01:39:08;;;;;;;;;;;;;;;;;;2141640;27;19983;-44
2022/07/07 01:40:09;;;;;;;;;;;;;;;;;;2141512;27;20402;-45
2022/07/07 01:41:10;;;;;;;;;;;;;;;;;;2142014;27;19967;-46
2022/07/07 01:42:10;;;;;;;;;;;;;;;;;;2141748;27;20014;-46
2022/07/07 01:43:11;;;;;;;;;;;;;;;;;;2141468;27;20365;-46
2022/07/07 01:44:12;;;;;;;;;;;;;;;;;;2142130;27;20372;-46
2022/07/07 01:45:13;;;;;;;;;;;;;;;;;;2141853;27;19970;-45
2022/07/07 01:46:14;;;;;;;;;;;;;;;;;;2141549;27;19930;-46
2022/07/07 01:47:15;;;;;;;;;;;;;;;;;;2141654;27;20009;-45
2022/07/07 01:48:16;;;;;;;;;;;;;;;;;;2141611;27;19923;-45
2022/07/07 01:49:17;;;;;;;;;;;;;;;;;;2142220;27;19930;-48
2022/07/07 01:50:18;;;;;;;;;;;;;;;;;;2141510;27;19922;-47
2022/07/07 01:51:19;;;;;;;;;;;;;;;;;;2142056;27;19971;-47
2022/07/07 01:52:19;;;;;;;;;;;;;;;;;;2142372;27;20412;-45
2022/07/07 01:53:21;;;;;;;;;;;;;;;;;;2141862;27;19922;-45
2022/07/07 01:54:22;;;;;;;;;;;;;;;;;;2141720;27;20017;-45
2022/07/07 01:55:23;;;;;;;;;;;;;;;;;;2141833;27;19967;-45
2022/07/07 01:56:23;;;;;;;;;;;;;;;;;;2141353;27;20356;-44
2022/07/07 01:57:24;;;;;;;;;;;;;;;;;;2141517;27;19923;-44
2022/07/07 01:58:25;;;;;;;;;;;;;;;;;;2141766;27;20009;-44
2022/07/07 01:59:26;;;;;;;;;;;;;;;;;;2141487;27;20390;-45
2022/07/07 02:00:27;;;;;;;;;;;;;;;;;;2141510;27;20438;-46
2022/07/07 02:01:28;;;;;;;;;;;;;;;;;;2141479;27;19969;-45
2022/07/07 02:02:29;;;;;;;;;;;;;;;;;;2142032;27;19982;-46
2022/07/07 02:03:30;;;;;;;;;;;;;;;;;;2141769;27;20059;-47
2022/07/07 02:04:31;;;;;;;;;;;;;;;;;;2141177;27;19930;-46
2022/07/07 02:05:32;;;;;;;;;;;;;;;;;;2141521;27;19970;-45
2022/07/07 02:06:33;;;;;;;;;;;;;;;;;;2141554;27;19930;-45
2022/07/07 02:07:34;;;;;;;;;;;;;;;;;;2141489;27;20093;-46
2022/07/07 02:08:35;;;;;;;;;;;;;;;;;;2141804;27;19923;-45
2022/07/07 02:09:36;;;;;;;;;;;;;;;;;;2141411;27;20375;-44
2022/07/07 02:11:58;;;;;;;;;;;;;;;;;;2106204;28;20295;-44
2022/07/07 02:12:59;;;;;;;;;;;;;;;;;;2141671;27;19923;-44
2022/07/07 02:13:59;;;;;;;;;;;;;;;;;;2141860;27;19923;-48
2022/07/07 02:15:00;;;;;;;;;;;;;;;;;;2141259;27;19923;-48
2022/07/07 02:16:02;;;;;;;;;;;;;;;;;;2141609;27;19923;-47
2022/07/07 02:17:04;;;;;;;;;;;;;;;;;;2141469;27;19926;-46
2022/07/07 02:18:04;;;;;;;;;;;;;;;;;;2141496;27;20366;-45
2022/07/07 02:19:06;;;;;;;;;;;;;;;;;;2141564;27;19929;-44
2022/07/07 02:20:06;;;;;;;;;;;;;;;;;;2141930;27;20018;-47
2022/07/07 02:21:07;;;;;;;;;;;;;;;;;;2141368;27;19958;-47
2022/07/07 02:22:08;;;;;;;;;;;;;;;;;;2141788;27;20288;-45
2022/07/07 02:23:10;;;;;;;;;;;;;;;;;;2141507;27;19958;-44
2022/07/07 02:24:10;;;;;;;;;;;;;;;;;;2141388;27;20013;-45
2022/07/07 02:25:11;;;;;;;;;;;;;;;;;;2141802;27;19917;-45
2022/07/07 02:26:12;;;;;;;;;;;;;;;;;;2141431;27;19961;-48
2022/07/07 02:27:13;;;;;;;;;;;;;;;;;;2141959;27;19935;-46
2022/07/07 02:28:14;;;;;;;;;;;;;;;;;;2141255;27;20018;-47
2022/07/07 02:29:15;;;;;;;;;;;;;;;;;;2141615;27;20005;-45
2022/07/07 02:30:17;;;;;;;;;;;;;;;;;;2142043;27;19923;-45
2022/07/07 02:31:18;;;;;;;;;;;;;;;;;;2141392;27;20026;-45
2022/07/07 02:32:18;;;;;;;;;;;;;;;;;;2141493;27;19930;-44
2022/07/07 02:33:19;;;;;;;;;;;;;;;;;;2141387;27;20419;-45
2022/07/07 02:34:20;;;;;;;;;;;;;;;;;;2141439;27;20428;-48
2022/07/07 02:35:22;;;;;;;;;;;;;;;;;;2141386;27;19923;-45
2022/07/07 02:36:23;;;;;;;;;;;;;;;;;;2141222;27;20022;-44
2022/07/07 02:37:24;;;;;;;;;;;;;;;;;;2141512;27;19933;-47
2022/07/07 02:38:24;;;;;;;;;;;;;;;;;;2141447;27;20006;-47
2022/07/07 02:39:25;;;;;;;;;;;;;;;;;;2141304;27;19930;-48
2022/07/07 02:40:26;;;;;;;;;;;;;;;;;;2141230;27;19922;-47
2022/07/07 02:41:27;;;;;;;;;;;;;;;;;;2141615;27;20022;-44
2022/07/07 02:42:28;;;;;;;;;;;;;;;;;;2141629;27;19923;-47
2022/07/07 02:43:29;;;;;;;;;;;;;;;;;;2141194;27;20054;-47
2022/07/07 02:44:30;;;;;;;;;;;;;;;;;;2141091;27;19923;-49
2022/07/07 02:45:31;;;;;;;;;;;;;;;;;;2141647;27;20030;-47
2022/07/07 02:46:32;;;;;;;;;;;;;;;;;;2141462;27;19923;-45
2022/07/07 02:47:33;;;;;;;;;;;;;;;;;;2141527;27;19929;-47
2022/07/07 02:48:34;;;;;;;;;;;;;;;;;;2141639;27;19927;-44
2022/07/07 02:49:34;;;;;;;;;;;;;;;;;;2141577;27;19982;-46
2022/07/07 02:50:35;;;;;;;;;;;;;;;;;;2141611;27;19922;-44
2022/07/07 02:51:36;;;;;;;;;;;;;;;;;;2141549;27;20005;-47
2022/07/07 02:52:37;;;;;;;;;;;;;;;;;;2141912;27;19950;-45
2022/07/07 02:53:38;;;;;;;;;;;;;;;;;;2141198;27;20013;-45
2022/07/07 02:54:39;;;;;;;;;;;;;;;;;;2141721;27;20039;-45
2022/07/07 02:55:40;;;;;;;;;;;;;;;;;;2141274;27;20351;-46
2022/07/07 02:56:41;;;;;;;;;;;;;;;;;;2141491;27;19937;-48
2022/07/07 02:57:42;;;;;;;;;;;;;;;;;;2141304;27;19962;-47
2022/07/07 02:58:45;;;;;;;;;;;;;;;;;;2141852;27;19923;-47
2022/07/07 02:59:45;;;;;;;;;;;;;;;;;;2141665;27;20030;-48
2022/07/07 03:00:47;;;;;;;;;;;;;;;;;;2141315;27;20355;-44
2022/07/07 03:01:47;;;;;;;;;;;;;;;;;;2140951;27;20446;-45
2022/07/07 03:02:48;;;;;;;;;;;;;;;;;;2141167;27;19962;-44
2022/07/07 03:03:49;;;;;;;;;;;;;;;;;;2141563;27;19923;-49
2022/07/07 03:04:50;;;;;;;;;;;;;;;;;;2141811;27;20295;-47
2022/07/07 03:05:51;;;;;;;;;;;;;;;;;;2141094;27;20013;-48
2022/07/07 03:06:52;;;;;;;;;;;;;;;;;;2141500;27;19961;-46
2022/07/07 03:07:53;;;;;;;;;;;;;;;;;;2140794;27;19922;-45
2022/07/07 03:08:54;;;;;;;;;;;;;;;;;;2140808;27;19927;-44
2022/07/07 03:09:55;;;;;;;;;;;;;;;;;;2141071;27;20446;-45
2022/07/07 03:10:56;;;;;;;;;;;;;;;;;;2140490;27;19923;-44
2022/07/07 03:11:56;;;;;;;;;;;;;;;;;;2132477;27;19930;-49
2022/07/07 03:12:57;;;;;;;;;;;;;;;;;;2132526;27;19930;-47
2022/07/07 03:13:58;;;;;;;;;;;;;;;;;;2133122;27;20014;-44
2022/07/07 03:14:59;;;;;;;;;;;;;;;;;;2133060;27;20013;-48
2022/07/07 03:16:00;;;;;;;;;;;;;;;;;;2132827;27;20269;-49
2022/07/07 03:17:01;;;;;;;;;;;;;;;;;;2132915;27;19923;-48
2022/07/07 03:18:02;;;;;;;;;;;;;;;;;;2132868;27;19923;-44
2022/07/07 03:19:03;;;;;;;;;;;;;;;;;;2132620;27;19923;-48
2022/07/07 03:20:04;;;;;;;;;;;;;;;;;;2133107;27;19926;-44
2022/07/07 03:21:05;;;;;;;;;;;;;;;;;;2132759;27;19953;-48
2022/07/07 03:22:06;;;;;;;;;;;;;;;;;;2132648;27;19977;-42
2022/07/07 03:23:07;;;;;;;;;;;;;;;;;;2132677;27;19923;-47
2022/07/07 03:24:07;;;;;;;;;;;;;;;;;;2132474;27;20055;-48
2022/07/07 03:25:08;;;;;;;;;;;;;;;;;;2132467;27;20229;-47
2022/07/07 03:26:09;;;;;;;;;;;;;;;;;;2132512;27;20366;-44
2022/07/07 03:27:10;;;;;;;;;;;;;;;;;;2132574;27;19923;-47
2022/07/07 03:28:11;;;;;;;;;;;;;;;;;;2132664;27;20364;-45
2022/07/07 03:29:12;;;;;;;;;;;;;;;;;;2132607;27;20401;-48
2022/07/07 03:30:13;;;;;;;;;;;;;;;;;;2132830;27;20025;-47
2022/07/07 03:31:14;;;;;;;;;;;;;;;;;;2132192;27;19959;-47
2022/07/07 03:32:16;;;;;;;;;;;;;;;;;;2132569;27;20363;-44
2022/07/07 03:33:17;;;;;;;;;;;;;;;;;;2132459;27;19923;-47
2022/07/07 03:34:22;;;;;;;;;;;;;;;;;;2132246;27;20417;-45
2022/07/07 03:35:23;;;;;;;;;;;;;;;;;;2132702;27;19923;-48
2022/07/07 03:36:24;;;;;;;;;;;;;;;;;;2132025;27;19935;-48
2022/07/07 03:37:25;;;;;;;;;;;;;;;;;;2132399;27;19923;-45
2022/07/07 03:38:26;;;;;;;;;;;;;;;;;;2132539;27;19923;-45
2022/07/07 03:39:26;;;;;;;;;;;;;;;;;;2132997;27;19927;-45
2022/07/07 03:40:28;;;;;;;;;;;;;;;;;;2132152;27;19927;-45
2022/07/07 03:41:28;;;;;;;;;;;;;;;;;;2132610;27;20010;-48
2022/07/07 03:42:29;;;;;;;;;;;;;;;;;;2132385;27;19964;-50
2022/07/07 03:43:30;;;;;;;;;;;;;;;;;;2132163;27;19923;-47
2022/07/07 03:44:31;;;;;;;;;;;;;;;;;;2132203;27;19930;-49
2022/07/07 03:45:32;;;;;;;;;;;;;;;;;;2131713;27;20018;-45
2022/07/07 03:46:33;;;;;;;;;;;;;;;;;;2132151;27;19930;-46
2022/07/07 03:47:35;;;;;;;;;;;;;;;;;;2132274;27;19939;-48
2022/07/07 03:48:36;;;;;;;;;;;;;;;;;;2132427;27;19923;-48
2022/07/07 03:49:37;;;;;;;;;;;;;;;;;;2132331;27;19923;-47
2022/07/07 03:50:39;;;;;;;;;;;;;;;;;;2132373;27;19927;-46
2022/07/07 03:51:39;;;;;;;;;;;;;;;;;;2132529;27;19923;-45
2022/07/07 03:52:40;;;;;;;;;;;;;;;;;;2132688;27;19987;-47
2022/07/07 03:53:41;;;;;;;;;;;;;;;;;;2132536;27;19979;-47
2022/07/07 03:54:42;;;;;;;;;;;;;;;;;;2132890;27;19998;-48
2022/07/07 03:55:43;;;;;;;;;;;;;;;;;;2132981;27;20360;-44
2022/07/07 03:56:44;;;;;;;;;;;;;;;;;;2132510;27;19927;-48
2022/07/07 03:57:45;;;;;;;;;;;;;;;;;;2132569;27;20355;-47
2022/07/07 03:58:46;;;;;;;;;;;;;;;;;;2131701;27;20018;-48
2022/07/07 03:59:47;;;;;;;;;;;;;;;;;;2131521;27;20303;-45
2022/07/07 04:00:48;;;;;;;;;;;;;;;;;;2131788;27;19927;-46
2022/07/07 04:01:49;;;;;;;;;;;;;;;;;;2133759;27;19957;-45
2022/07/07 04:02:50;;;;;;;;;;;;;;;;;;2140950;27;19929;-46
2022/07/07 04:03:51;;;;;;;;;;;;;;;;;;2140666;27;20278;-45
2022/07/07 04:04:52;;;;;;;;;;;;;;;;;;2140704;27;19937;-47
2022/07/07 04:05:53;;;;;;;;;;;;;;;;;;2140588;27;20283;-45
2022/07/07 04:06:54;;;;;;;;;;;;;;;;;;2141233;27;19975;-47
2022/07/07 04:07:55;;;;;;;;;;;;;;;;;;2140831;27;20365;-48
2022/07/07 04:08:55;;;;;;;;;;;;;;;;;;2141221;27;19922;-48
2022/07/07 04:09:56;;;;;;;;;;;;;;;;;;2140747;27;19922;-48
2022/07/07 04:10:57;;;;;;;;;;;;;;;;;;2140091;27;19969;-47
2022/07/07 04:11:58;;;;;;;;;;;;;;;;;;2132193;27;19930;-46
2022/07/07 04:12:59;;;;;;;;;;;;;;;;;;2132130;27;19923;-44
2022/07/07 04:14:01;;;;;;;;;;;;;;;;;;2132427;27;19923;-47
2022/07/07 04:15:02;;;;;;;;;;;;;;;;;;2132081;27;19929;-47
2022/07/07 04:16:03;;;;;;;;;;;;;;;;;;2132137;27;19923;-47
2022/07/07 04:17:04;;;;;;;;;;;;;;;;;;2132264;27;19927;-47
2022/07/07 04:18:05;;;;;;;;;;;;;;;;;;2132092;27;19930;-47
2022/07/07 04:19:07;;;;;;;;;;;;;;;;;;2131922;27;19927;-47
2022/07/07 04:20:08;;;;;;;;;;;;;;;;;;2131896;27;19930;-48
2022/07/07 04:21:10;;;;;;;;;;;;;;;;;;2132053;27;19931;-44
2022/07/07 04:22:10;;;;;;;;;;;;;;;;;;2132628;27;20048;-48
2022/07/07 04:23:11;;;;;;;;;;;;;;;;;;2131955;27;20007;-47
2022/07/07 04:24:12;;;;;;;;;;;;;;;;;;2132409;27;20004;-47
2022/07/07 04:25:13;;;;;;;;;;;;;;;;;;2132149;27;19923;-47
2022/07/07 04:26:14;;;;;;;;;;;;;;;;;;2132747;27;20013;-48
2022/07/07 04:27:15;;;;;;;;;;;;;;;;;;2132209;27;20012;-44
2022/07/07 04:28:16;;;;;;;;;;;;;;;;;;2131855;27;19924;-44
2022/07/07 04:29:17;;;;;;;;;;;;;;;;;;2132070;27;19923;-44
2022/07/07 04:30:21;;;;;;;;;;;;;;;;;;2131884;27;19923;-45
2022/07/07 04:31:22;;;;;;;;;;;;;;;;;;2131793;27;19927;-45
2022/07/07 04:32:22;;;;;;;;;;;;;;;;;;2132068;27;19923;-44
2022/07/07 04:33:23;;;;;;;;;;;;;;;;;;2131952;27;19946;-45
2022/07/07 04:34:24;;;;;;;;;;;;;;;;;;2131850;27;20409;-45
2022/07/07 04:35:25;;;;;;;;;;;;;;;;;;2131898;27;19923;-45
2022/07/07 04:36:26;;;;;;;;;;;;;;;;;;2131894;27;19923;-45
2022/07/07 04:37:27;;;;;;;;;;;;;;;;;;2131927;27;19923;-45
2022/07/07 04:38:28;;;;;;;;;;;;;;;;;;2131757;27;19978;-45
2022/07/07 04:39:29;;;;;;;;;;;;;;;;;;2132273;27;19968;-46
2022/07/07 04:40:29;;;;;;;;;;;;;;;;;;2131785;27;20287;-47
2022/07/07 04:41:30;;;;;;;;;;;;;;;;;;2131914;27;20010;-49
2022/07/07 04:42:31;;;;;;;;;;;;;;;;;;2131858;27;19923;-44
2022/07/07 04:43:32;;;;;;;;;;;;;;;;;;2132602;27;19923;-45
2022/07/07 04:44:33;;;;;;;;;;;;;;;;;;2131744;27;20477;-45
2022/07/07 04:45:34;;;;;;;;;;;;;;;;;;2132257;27;19935;-47
2022/07/07 04:46:35;;;;;;;;;;;;;;;;;;2132195;27;19988;-43
2022/07/07 04:47:36;;;;;;;;;;;;;;;;;;2131940;27;19923;-47
2022/07/07 04:48:36;;;;;;;;;;;;;;;;;;2131444;27;19930;-47
2022/07/07 04:49:37;;;;;;;;;;;;;;;;;;2131303;27;19967;-45
2022/07/07 04:50:38;;;;;;;;;;;;;;;;;;2131548;27;19985;-48
2022/07/07 04:51:39;;;;;;;;;;;;;;;;;;2133009;27;20367;-45
2022/07/07 04:52:40;;;;;;;;;;;;;;;;;;2140746;27;19927;-47
2022/07/07 04:53:41;;;;;;;;;;;;;;;;;;2140493;27;19969;-47
2022/07/07 04:54:42;;;;;;;;;;;;;;;;;;2140858;27;19946;-47
2022/07/07 04:55:43;;;;;;;;;;;;;;;;;;2140547;27;19930;-44
2022/07/07 04:56:44;;;;;;;;;;;;;;;;;;2141194;27;19930;-45
2022/07/07 04:57:45;;;;;;;;;;;;;;;;;;2139454;27;19973;-45
2022/07/07 04:58:46;;;;;;;;;;;;;;;;;;2140371;27;19945;-45
2022/07/07 04:59:46;;;;;;;;;;;;;;;;;;2140782;27;20290;-47
2022/07/07 05:00:47;;;;;;;;;;;;;;;;;;2140095;27;19967;-47
2022/07/07 05:01:48;;;;;;;;;;;;;;;;;;2140006;27;19987;-47
2022/07/07 05:02:49;;;;;;;;;;;;;;;;;;2140553;27;20313;-47
2022/07/07 05:03:50;;;;;;;;;;;;;;;;;;2140635;27;19930;-45
2022/07/07 05:04:51;;;;;;;;;;;;;;;;;;2140488;27;19935;-45
2022/07/07 05:05:52;;;;;;;;;;;;;;;;;;2140418;27;20392;-47
2022/07/07 05:06:53;;;;;;;;;;;;;;;;;;2140407;27;19975;-44
2022/07/07 05:07:53;;;;;;;;;;;;;;;;;;2140331;27;19929;-45
2022/07/07 05:08:54;;;;;;;;;;;;;;;;;;2140342;27;19954;-47
2022/07/07 05:09:55;;;;;;;;;;;;;;;;;;2140388;27;19945;-45
2022/07/07 05:10:56;;;;;;;;;;;;;;;;;;2140085;27;19971;-47
2022/07/07 05:11:57;;;;;;;;;;;;;;;;;;2131943;27;19930;-44
2022/07/07 05:12:58;;;;;;;;;;;;;;;;;;2131775;27;20017;-48
2022/07/07 05:13:59;;;;;;;;;;;;;;;;;;2131940;27;19923;-46
2022/07/07 05:15:00;;;;;;;;;;;;;;;;;;2131541;27;19950;-45
2022/07/07 05:16:00;;;;;;;;;;;;;;;;;;2131916;27;20354;-48
2022/07/07 05:17:01;;;;;;;;;;;;;;;;;;2131445;27;19923;-47
2022/07/07 05:18:03;;;;;;;;;;;;;;;;;;2131905;27;19930;-46
2022/07/07 05:19:05;;;;;;;;;;;;;;;;;;2131899;27;19934;-47
2022/07/07 05:20:05;;;;;;;;;;;;;;;;;;2131815;27;19923;-45
2022/07/07 05:21:06;;;;;;;;;;;;;;;;;;2132424;27;19923;-47
2022/07/07 05:22:07;;;;;;;;;;;;;;;;;;2131850;27;20000;-47
2022/07/07 05:23:10;;;;;;;;;;;;;;;;;;2131738;27;19953;-48
2022/07/07 05:24:11;;;;;;;;;;;;;;;;;;2131597;27;19923;-48
2022/07/07 05:25:12;;;;;;;;;;;;;;;;;;2131754;27;19923;-48
2022/07/07 05:26:13;;;;;;;;;;;;;;;;;;2131424;27;20423;-48
2022/07/07 05:27:14;;;;;;;;;;;;;;;;;;2131532;27;19923;-47
2022/07/07 05:28:14;;;;;;;;;;;;;;;;;;2131457;27;19926;-48
2022/07/07 05:29:15;;;;;;;;;;;;;;;;;;2131561;27;20438;-47
2022/07/07 05:30:16;;;;;;;;;;;;;;;;;;2131782;27;19923;-47
2022/07/07 05:31:17;;;;;;;;;;;;;;;;;;2131533;27;20286;-47
2022/07/07 05:32:18;;;;;;;;;;;;;;;;;;2131575;27;19923;-46
2022/07/07 05:33:19;;;;;;;;;;;;;;;;;;2132107;27;19959;-45
2022/07/07 05:34:20;;;;;;;;;;;;;;;;;;2132255;27;19923;-51
2022/07/07 05:35:21;;;;;;;;;;;;;;;;;;2131913;27;20329;-49
2022/07/07 05:36:22;;;;;;;;;;;;;;;;;;2131988;27;20299;-47
2022/07/07 05:37:22;;;;;;;;;;;;;;;;;;2131339;27;19923;-45
2022/07/07 05:38:23;;;;;;;;;;;;;;;;;;2131635;27;19930;-45
2022/07/07 05:39:24;;;;;;;;;;;;;;;;;;2131868;27;19934;-50
2022/07/07 05:40:25;;;;;;;;;;;;;;;;;;2132481;27;20029;-45
2022/07/07 05:41:26;;;;;;;;;;;;;;;;;;2131494;27;19973;-45
2022/07/07 05:42:27;;;;;;;;;;;;;;;;;;2131770;27;19923;-45
2022/07/07 05:43:28;;;;;;;;;;;;;;;;;;2131773;27;20283;-48
2022/07/07 05:44:29;;;;;;;;;;;;;;;;;;2132059;27;19976;-46
2022/07/07 05:45:30;;;;;;;;;;;;;;;;;;2131567;27;20321;-45
2022/07/07 05:46:31;;;;;;;;;;;;;;;;;;2131481;27;20025;-51
2022/07/07 05:47:32;;;;;;;;;;;;;;;;;;2131393;27;20542;-47
2022/07/07 05:48:33;;;;;;;;;;;;;;;;;;2131828;27;20375;-48
2022/07/07 05:49:34;;;;;;;;;;;;;;;;;;2131590;27;19954;-47
2022/07/07 05:50:35;;;;;;;;;;;;;;;;;;2131637;27;19986;-50
2022/07/07 05:51:35;;;;;;;;;;;;;;;;;;2131769;27;19923;-50
2022/07/07 05:52:36;;;;;;;;;;;;;;;;;;2131734;27;19930;-48
2022/07/07 05:53:37;;;;;;;;;;;;;;;;;;2131898;27;19954;-45
2022/07/07 05:54:38;;;;;;;;;;;;;;;;;;2131836;27;19934;-46
2022/07/07 05:55:39;;;;;;;;;;;;;;;;;;2132214;27;20050;-46
2022/07/07 05:56:40;;;;;;;;;;;;;;;;;;2133756;27;20359;-46
2022/07/07 05:57:41;;;;;;;;;;;;;;;;;;2139865;27;19923;-45
2022/07/07 05:58:43;;;;;;;;;;;;;;;;;;2140271;27;19923;-48
2022/07/07 05:59:44;;;;;;;;;;;;;;;;;;2140386;27;20377;-47
2022/07/07 06:00:44;;;;;;;;;;;;;;;;;;2140561;27;19927;-45
2022/07/07 06:01:46;;;;;;;;;;;;;;;;;;2140562;27;19959;-47
2022/07/07 06:02:46;;;;;;;;;;;;;;;;;;2140194;27;20025;-46
2022/07/07 06:03:47;;;;;;;;;;;;;;;;;;2139984;27;20426;-47
2022/07/07 06:04:48;;;;;;;;;;;;;;;;;;2139887;27;19923;-48
2022/07/07 06:05:55;;;;;;;;;;;;;;;;;;2140256;27;19927;-45
2022/07/07 06:06:56;;;;;;;;;;;;;;;;;;2140142;27;19987;-45
2022/07/07 06:07:57;;;;;;;;;;;;;;;;;;2140384;27;19971;-45
2022/07/07 06:08:57;;;;;;;;;;;;;;;;;;2140783;27;20067;-47
2022/07/07 06:09:58;;;;;;;;;;;;;;;;;;2142194;27;19957;-47
2022/07/07 06:10:59;;;;;;;;;;;;;;;;;;2140760;27;19987;-48
2022/07/07 06:12:00;;;;;;;;;;;;;;;;;;2132808;27;19923;-47
2022/07/07 06:13:01;;;;;;;;;;;;;;;;;;2132964;27;19923;-45
2022/07/07 06:14:02;;;;;;;;;;;;;;;;;;2132926;27;19927;-47
2022/07/07 06:15:02;;;;;;;;;;;;;;;;;;2132795;27;19973;-48
2022/07/07 06:16:03;;;;;;;;;;;;;;;;;;2132682;27;19923;-49
2022/07/07 06:17:04;;;;;;;;;;;;;;;;;;2132655;27;20025;-46
2022/07/07 06:18:05;;;;;;;;;;;;;;;;;;2132885;27;20280;-50
2022/07/07 06:19:09;;;;;;;;;;;;;;;;;;2133049;27;19923;-49
2022/07/07 06:20:10;;;;;;;;;;;;;;;;;;2133018;27;19931;-48
2022/07/07 06:21:11;;;;;;;;;;;;;;;;;;2133237;27;20502;-45
2022/07/07 06:22:12;;;;;;;;;;;;;;;;;;2132727;27;19931;-46
2022/07/07 06:23:13;;;;;;;;;;;;;;;;;;2132694;27;20458;-46
2022/07/07 06:24:14;;;;;;;;;;;;;;;;;;2132808;27;19950;-45
2022/07/07 06:25:14;;;;;;;;;;;;;;;;;;2133025;27;19962;-45
2022/07/07 06:26:15;;;;;;;;;;;;;;;;;;2132556;27;20018;-45
2022/07/07 06:27:16;;;;;;;;;;;;;;;;;;2132614;27;19954;-45
2022/07/07 06:28:17;;;;;;;;;;;;;;;;;;2132778;27;20474;-46
2022/07/07 06:29:19;;;;;;;;;;;;;;;;;;2132821;27;19980;-47
2022/07/07 06:30:20;;;;;;;;;;;;;;;;;;2132969;27;20006;-47
2022/07/07 06:31:20;;;;;;;;;;;;;;;;;;2132843;27;19987;-44
2022/07/07 06:32:21;;;;;;;;;;;;;;;;;;2133138;27;19976;-47
2022/07/07 06:33:22;;;;;;;;;;;;;;;;;;2132604;27;19923;-46
2022/07/07 06:34:23;;;;;;;;;;;;;;;;;;2132614;27;19923;-48
2022/07/07 06:35:29;;;;;;;;;;;;;;;;;;2132669;27;20002;-47
2022/07/07 06:36:30;;;;;;;;;;;;;;;;;;2132861;27;19923;-47
2022/07/07 06:37:31;;;;;;;;;;;;;;;;;;2132639;27;19948;-47
2022/07/07 06:38:32;;;;;;;;;;;;;;;;;;2133300;27;19976;-45
2022/07/07 06:39:33;;;;;;;;;;;;;;;;;;2133174;27;19975;-47
2022/07/07 06:40:33;;;;;;;;;;;;;;;;;;2132823;27;20375;-48
2022/07/07 06:41:35;;;;;;;;;;;;;;;;;;2132536;27;19927;-47
2022/07/07 06:42:36;;;;;;;;;;;;;;;;;;2132793;27;19970;-44
2022/07/07 06:43:38;;;;;;;;;;;;;;;;;;2133005;27;19951;-47
2022/07/07 06:44:38;;;;;;;;;;;;;;;;;;2132635;27;19927;-46
2022/07/07 06:45:39;;;;;;;;;;;;;;;;;;2133123;27;20007;-44
2022/07/07 06:46:40;;;;;;;;;;;;;;;;;;2132800;27;19975;-48
2022/07/07 06:47:41;;;;;;;;;;;;;;;;;;2132792;27;20329;-47
2022/07/07 06:48:42;;;;;;;;;;;;;;;;;;2133137;27;19923;-44
2022/07/07 06:49:43;;;;;;;;;;;;;;;;;;2132929;27;19970;-47
2022/07/07 06:50:44;;;;;;;;;;;;;;;;;;2132881;27;19927;-47
2022/07/07 06:51:45;;;;;;;;;;;;;;;;;;2132726;27;19934;-45
2022/07/07 06:52:45;;;;;;;;;;;;;;;;;;2133367;27;20018;-45
2022/07/07 06:53:47;;;;;;;;;;;;;;;;;;2140896;27;20336;-45
2022/07/07 06:54:47;;;;;;;;;;;;;;;;;;2141335;27;20375;-45
2022/07/07 06:55:48;;;;;;;;;;;;;;;;;;2141303;27;19923;-44
2022/07/07 06:56:49;;;;;;;;;;;;;;;;;;2141541;27;19960;-44
2022/07/07 06:57:50;;;;;;;;;;;;;;;;;;2141077;27;19923;-46